Alna, Maine
Current Conditions -  °F | °C
As of 6:53 PM on Monday 24 Nov 2014 (Local Time) from KIWI Reporting Station
Overcast Overcast  
Wind Chill: 60°   Ceiling: 1000
Heat Index: 60°   Visibility: 9mi
Dew Point: 57°   Wind: 12mph
Humidity: 90%   Direction: 210°SSW
Pressure: 29.59"   Gusts: 22mph
Location:  44.11°N, 69.6°W
Report Text: KIWI 242353Z AUTO 21010G19KT 9SM OVC010 16/14 A2959 RMK AO2 SLP018 60002 T01560139 10156 20144 53004
Loading
Personal Weather Stations






























Interactive Weather Map New forecast layout! Learn more

10-Day Weather Forecast

Advertisements
Track Severe Weather on mobile